sensor_id;sensor_type;location;lat;lon;timestamp;pressure;altitude;pressure_sealevel;temperature
19568;BMP280;9930;49.240;8.548;2023-09-30T00:00:51;101294.28;;;22.61
19568;BMP280;9930;49.240;8.548;2023-09-30T00:03:30;101291.69;;;22.57
19568;BMP280;9930;49.240;8.548;2023-09-30T00:06:11;101275.19;;;22.47
19568;BMP280;9930;49.240;8.548;2023-09-30T00:08:45;101272.59;;;22.46
19568;BMP280;9930;49.240;8.548;2023-09-30T00:11:16;101260.44;;;22.40
19568;BMP280;9930;49.240;8.548;2023-09-30T00:13:52;101298.63;;;22.58
19568;BMP280;9930;49.240;8.548;2023-09-30T00:16:23;101302.94;;;22.51
19568;BMP280;9930;49.240;8.548;2023-09-30T00:18:53;101283.81;;;22.37
19568;BMP280;9930;49.240;8.548;2023-09-30T00:21:24;101329.84;;;22.62
19568;BMP280;9930;49.240;8.548;2023-09-30T00:23:58;101291.63;;;22.36
19568;BMP280;9930;49.240;8.548;2023-09-30T00:26:37;101318.53;;;22.48
19568;BMP280;9930;49.240;8.548;2023-09-30T00:29:14;101319.38;;;22.44
19568;BMP280;9930;49.240;8.548;2023-09-30T00:31:50;101311.53;;;22.30
19568;BMP280;9930;49.240;8.548;2023-09-30T00:34:18;101331.47;;;22.35
19568;BMP280;9930;49.240;8.548;2023-09-30T00:36:46;101321.06;;;22.30
19568;BMP280;9930;49.240;8.548;2023-09-30T00:39:19;101314.09;;;22.24
19568;BMP280;9930;49.240;8.548;2023-09-30T00:41:49;101327.09;;;22.27
19568;BMP280;9930;49.240;8.548;2023-09-30T00:44:22;101349.66;;;22.32
19568;BMP280;9930;49.240;8.548;2023-09-30T00:46:49;101329.69;;;22.21
19568;BMP280;9930;49.240;8.548;2023-09-30T00:49:17;101348.75;;;22.20
19568;BMP280;9930;49.240;8.548;2023-09-30T00:51:47;101353.97;;;22.29
19568;BMP280;9930;49.240;8.548;2023-09-30T00:54:15;101315.72;;;22.03
19568;BMP280;9930;49.240;8.548;2023-09-30T00:56:46;101354.84;;;22.30
19568;BMP280;9930;49.240;8.548;2023-09-30T00:59:17;101350.50;;;22.27
19568;BMP280;9930;49.240;8.548;2023-09-30T01:01:46;101351.34;;;22.23
19568;BMP280;9930;49.240;8.548;2023-09-30T01:04:17;101299.19;;;21.90
19568;BMP280;9930;49.240;8.548;2023-09-30T01:06:55;101327.88;;;22.05
19568;BMP280;9930;49.240;8.548;2023-09-30T01:09:45;101361.72;;;22.16
19568;BMP280;9930;49.240;8.548;2023-09-30T01:12:16;101313.00;;;21.84
19568;BMP280;9930;49.240;8.548;2023-09-30T01:14:46;101357.34;;;22.09
19568;BMP280;9930;49.240;8.548;2023-09-30T01:17:14;101335.56;;;21.91
19568;BMP280;9930;49.240;8.548;2023-09-30T01:19:42;101366.78;;;22.01
19568;BMP280;9930;49.240;8.548;2023-09-30T01:22:16;101310.28;;;21.66
19568;BMP280;9930;49.240;8.548;2023-09-30T01:24:44;101336.34;;;21.77
19568;BMP280;9930;49.240;8.548;2023-09-30T01:27:14;101346.72;;;21.78
19568;BMP280;9930;49.240;8.548;2023-09-30T01:29:49;101301.56;;;21.55
19568;BMP280;9930;49.240;8.548;2023-09-30T01:32:20;101337.13;;;21.66
19568;BMP280;9930;49.240;8.548;2023-09-30T01:34:49;101364.88;;;21.74
19568;BMP280;9930;49.240;8.548;2023-09-30T01:37:20;101338.75;;;21.52
19568;BMP280;9930;49.240;8.548;2023-09-30T01:39:48;101319.63;;;21.40
19568;BMP280;9930;49.240;8.548;2023-09-30T01:42:21;101361.31;;;21.61
19568;BMP280;9930;49.240;8.548;2023-09-30T01:44:49;101363.88;;;21.56
19568;BMP280;9930;49.240;8.548;2023-09-30T01:47:17;101336.09;;;21.43
19568;BMP280;9930;49.240;8.548;2023-09-30T01:49:45;101334.28;;;21.33
19568;BMP280;9930;49.240;8.548;2023-09-30T01:52:17;101310.75;;;21.18
19568;BMP280;9930;49.240;8.548;2023-09-30T01:54:45;101349.88;;;21.36
19568;BMP280;9930;49.240;8.548;2023-09-30T01:57:13;101360.22;;;21.33
19568;BMP280;9930;49.240;8.548;2023-09-30T01:59:42;101363.72;;;21.35
19568;BMP280;9930;49.240;8.548;2023-09-30T02:02:19;101354.09;;;21.25
19568;BMP280;9930;49.240;8.548;2023-09-30T02:04:48;101350.56;;;21.18
19568;BMP280;9930;49.240;8.548;2023-09-30T02:07:25;101381.94;;;21.43
19568;BMP280;9930;49.240;8.548;2023-09-30T02:09:54;101380.22;;;21.43
19568;BMP280;9930;49.240;8.548;2023-09-30T02:12:26;101334.97;;;21.17
19568;BMP280;9930;49.240;8.548;2023-09-30T02:14:58;101336.69;;;21.16
19568;BMP280;9930;49.240;8.548;2023-09-30T02:17:36;101350.66;;;21.26
19568;BMP280;9930;49.240;8.548;2023-09-30T02:22:48;101334.09;;;21.15
19568;BMP280;9930;49.240;8.548;2023-09-30T02:25:43;101377.63;;;21.43
19568;BMP280;9930;49.240;8.548;2023-09-30T02:28:37;101335.06;;;21.23
19568;BMP280;9930;49.240;8.548;2023-09-30T02:31:24;101376.78;;;21.46
19568;BMP280;9930;49.240;8.548;2023-09-30T02:34:46;101362.91;;;21.44
19568;BMP280;9930;49.240;8.548;2023-09-30T02:37:43;101359.34;;;21.31
19568;BMP280;9930;49.240;8.548;2023-09-30T02:40:41;101386.25;;;21.41
19568;BMP280;9930;49.240;8.548;2023-09-30T02:43:39;101381.06;;;21.41
19568;BMP280;9930;49.240;8.548;2023-09-30T02:46:26;101361.91;;;21.26
19568;BMP280;9930;49.240;8.548;2023-09-30T02:49:01;101354.00;;;21.17
19568;BMP280;9930;49.240;8.548;2023-09-30T02:52:01;101392.19;;;21.27
19568;BMP280;9930;49.240;8.548;2023-09-30T02:55:51;101388.72;;;21.25
19568;BMP280;9930;49.240;8.548;2023-09-30T02:58:43;101380.03;;;21.23
19568;BMP280;9930;49.240;8.548;2023-09-30T03:01:28;101375.72;;;21.22
19568;BMP280;9930;49.240;8.548;2023-09-30T03:04:40;101380.91;;;21.24
19568;BMP280;9930;49.240;8.548;2023-09-30T03:07:22;101380.84;;;21.19
19568;BMP280;9930;49.240;8.548;2023-09-30T03:10:11;101382.63;;;21.23
19568;BMP280;9930;49.240;8.548;2023-09-30T03:13:05;101395.69;;;21.31
19568;BMP280;9930;49.240;8.548;2023-09-30T03:15:49;101361.69;;;21.07
19568;BMP280;9930;49.240;8.548;2023-09-30T03:18:23;101399.97;;;21.26
19568;BMP280;9930;49.240;8.548;2023-09-30T03:21:22;101353.81;;;20.99
19568;BMP280;9930;49.240;8.548;2023-09-30T03:27:47;101371.22;;;21.09
19568;BMP280;9930;49.240;8.548;2023-09-30T03:30:51;101346.88;;;20.95
19568;BMP280;9930;49.240;8.548;2023-09-30T03:33:41;101365.09;;;21.01
19568;BMP280;9930;49.240;8.548;2023-09-30T03:36:23;101394.66;;;21.18
19568;BMP280;9930;49.240;8.548;2023-09-30T03:39:04;101398.97;;;21.16
19568;BMP280;9930;49.240;8.548;2023-09-30T03:41:48;101401.53;;;21.15
19568;BMP280;9930;49.240;8.548;2023-09-30T03:44:28;101371.03;;;20.89
19568;BMP280;9930;49.240;8.548;2023-09-30T03:46:54;101408.44;;;21.11
19568;BMP280;9930;49.240;8.548;2023-09-30T03:49:20;101377.88;;;20.84
19568;BMP280;9930;49.240;8.548;2023-09-30T03:51:53;101401.34;;;20.96
19568;BMP280;9930;49.240;8.548;2023-09-30T03:54:19;101393.56;;;20.95
19568;BMP280;9930;49.240;8.548;2023-09-30T03:56:53;101380.47;;;20.83
19568;BMP280;9930;49.240;8.548;2023-09-30T03:59:22;101408.28;;;20.96
19568;BMP280;9930;49.240;8.548;2023-09-30T04:01:48;101401.28;;;20.90
19568;BMP280;9930;49.240;8.548;2023-09-30T04:04:14;101397.81;;;20.90
19568;BMP280;9930;49.240;8.548;2023-09-30T04:07:03;101419.53;;;20.99
19568;BMP280;9930;49.240;8.548;2023-09-30T04:09:52;101389.97;;;20.84
19568;BMP280;9930;49.240;8.548;2023-09-30T04:12:22;101397.75;;;20.82
19568;BMP280;9930;49.240;8.548;2023-09-30T04:15:15;101411.56;;;20.78
19568;BMP280;9930;49.240;8.548;2023-09-30T04:17:45;101393.22;;;20.63
19568;BMP280;9930;49.240;8.548;2023-09-30T04:20:27;101441.88;;;20.87
19568;BMP280;9930;49.240;8.548;2023-09-30T04:23:14;101421.00;;;20.72
19568;BMP280;9930;49.240;8.548;2023-09-30T04:25:58;101416.66;;;20.72
19568;BMP280;9930;49.240;8.548;2023-09-30T04:29:14;101399.25;;;20.60
19568;BMP280;9930;49.240;8.548;2023-09-30T04:31:48;101422.75;;;20.74
19568;BMP280;9930;49.240;8.548;2023-09-30T04:34:29;101408.88;;;20.71
19568;BMP280;9930;49.240;8.548;2023-09-30T04:37:24;101423.59;;;20.73
19568;BMP280;9930;49.240;8.548;2023-09-30T04:40:27;101447.00;;;20.78
19568;BMP280;9930;49.240;8.548;2023-09-30T04:43:15;101426.03;;;20.61
19568;BMP280;9930;49.240;8.548;2023-09-30T04:45:43;101399.03;;;20.45
19568;BMP280;9930;49.240;8.548;2023-09-30T04:48:14;101419.91;;;20.56
19568;BMP280;9930;49.240;8.548;2023-09-30T05:06:12;101409.03;;;20.19
19568;BMP280;9930;49.240;8.548;2023-09-30T05:08:38;101448.09;;;20.34
19568;BMP280;9930;49.240;8.548;2023-09-30T05:11:07;101413.25;;;20.13
19568;BMP280;9930;49.240;8.548;2023-09-30T05:13:36;101422.78;;;20.15
19568;BMP280;9930;49.240;8.548;2023-09-30T05:16:11;101385.38;;;19.95
19568;BMP280;9930;49.240;8.548;2023-09-30T05:18:45;101407.13;;;20.08
19568;BMP280;9930;49.240;8.548;2023-09-30T05:21:13;101411.44;;;20.07
19568;BMP280;9930;49.240;8.548;2023-09-30T05:23:42;101416.53;;;20.01
19568;BMP280;9930;49.240;8.548;2023-09-30T05:26:08;101400.75;;;19.84
19568;BMP280;9930;49.240;8.548;2023-09-30T05:28:37;101430.31;;;19.98
19568;BMP280;9930;49.240;8.548;2023-09-30T05:31:07;101429.38;;;19.95
19568;BMP280;9930;49.240;8.548;2023-09-30T05:33:37;101410.19;;;19.81
19568;BMP280;9930;49.240;8.548;2023-09-30T05:36:11;101424.16;;;19.92
19568;BMP280;9930;49.240;8.548;2023-09-30T05:38:39;101414.59;;;19.88
19568;BMP280;9930;49.240;8.548;2023-09-30T05:41:14;101422.31;;;19.83
19568;BMP280;9930;49.240;8.548;2023-09-30T05:43:46;101441.28;;;19.84
19568;BMP280;9930;49.240;8.548;2023-09-30T05:46:15;101435.91;;;19.71
19568;BMP280;9930;49.240;8.548;2023-09-30T05:48:42;101467.16;;;19.82
19568;BMP280;9930;49.240;8.548;2023-09-30T05:51:11;101482.78;;;19.88
19568;BMP280;9930;49.240;8.548;2023-09-30T05:53:42;101493.13;;;19.87
19568;BMP280;9930;49.240;8.548;2023-09-30T05:56:11;101460.06;;;19.70
19568;BMP280;9930;49.240;8.548;2023-09-30T05:58:42;101447.00;;;19.63
19568;BMP280;9930;49.240;8.548;2023-09-30T06:01:11;101437.44;;;19.60
19568;BMP280;9930;49.240;8.548;2023-09-30T06:03:43;101432.22;;;19.57
19568;BMP280;9930;49.240;8.548;2023-09-30T06:06:37;101456.69;;;19.75
19568;BMP280;9930;49.240;8.548;2023-09-30T06:09:16;101458.41;;;19.76
19568;BMP280;9930;49.240;8.548;2023-09-30T06:12:13;101431.44;;;19.61
19568;BMP280;9930;49.240;8.548;2023-09-30T06:14:56;101442.72;;;19.66
19568;BMP280;9930;49.240;8.548;2023-09-30T06:17:55;101435.75;;;19.62
19568;BMP280;9930;49.240;8.548;2023-09-30T06:20:22;101476.78;;;19.89
19568;BMP280;9930;49.240;8.548;2023-09-30T06:22:50;101477.69;;;19.93
19568;BMP280;9930;49.240;8.548;2023-09-30T06:25:28;101460.28;;;19.83
19568;BMP280;9930;49.240;8.548;2023-09-30T06:28:08;101469.97;;;19.96
19568;BMP280;9930;49.240;8.548;2023-09-30T06:30:51;101457.78;;;19.89
19568;BMP280;9930;49.240;8.548;2023-09-30T06:33:29;101483.09;;;20.07
19568;BMP280;9930;49.240;8.548;2023-09-30T06:36:24;101488.34;;;20.11
19568;BMP280;9930;49.240;8.548;2023-09-30T06:39:08;101488.41;;;20.16
19568;BMP280;9930;49.240;8.548;2023-09-30T06:41:37;101461.47;;;20.04
19568;BMP280;9930;49.240;8.548;2023-09-30T06:44:14;101455.44;;;20.05
19568;BMP280;9930;49.240;8.548;2023-09-30T06:46:47;101474.72;;;20.23
19568;BMP280;9930;49.240;8.548;2023-09-30T06:49:18;101469.50;;;20.20
19568;BMP280;9930;49.240;8.548;2023-09-30T06:51:47;101487.84;;;20.35
19568;BMP280;9930;49.240;8.548;2023-09-30T06:54:18;101502.72;;;20.45
19568;BMP280;9930;49.240;8.548;2023-09-30T06:56:53;101479.31;;;20.41
19568;BMP280;9930;49.240;8.548;2023-09-30T06:59:38;101479.44;;;20.48
19568;BMP280;9930;49.240;8.548;2023-09-30T07:02:11;101507.34;;;20.67
19568;BMP280;9930;49.240;8.548;2023-09-30T07:05:26;101520.44;;;20.75
19568;BMP280;9930;49.240;8.548;2023-09-30T07:08:16;101537.00;;;20.88
19568;BMP280;9930;49.240;8.548;2023-09-30T07:10:51;101522.34;;;20.93
19568;BMP280;9930;49.240;8.548;2023-09-30T07:13:45;101521.56;;;20.98
19568;BMP280;9930;49.240;8.548;2023-09-30T07:16:46;101495.56;;;20.92
19568;BMP280;9930;49.240;8.548;2023-09-30T08:11:14;101520.53;;;21.55
19568;BMP280;9930;49.240;8.548;2023-09-30T08:17:54;101525.13;;;21.84
19568;BMP280;9930;49.240;8.548;2023-09-30T08:37:13;101520.31;;;22.25
19568;BMP280;9930;49.240;8.548;2023-09-30T08:40:07;101511.72;;;22.37
19568;BMP280;9930;49.240;8.548;2023-09-30T10:04:57;101509.72;;;23.69
19568;BMP280;9930;49.240;8.548;2023-09-30T10:10:38;101505.38;;;23.77
19568;BMP280;9930;49.240;8.548;2023-09-30T10:13:59;101531.44;;;24.06
19568;BMP280;9930;49.240;8.548;2023-09-30T10:16:48;101488.00;;;23.88
19568;BMP280;9930;49.240;8.548;2023-09-30T10:22:38;101494.09;;;24.07
19568;BMP280;9930;49.240;8.548;2023-09-30T10:25:48;101507.13;;;24.32
19568;BMP280;9930;49.240;8.548;2023-09-30T10:32:09;101498.41;;;24.43
19568;BMP280;9930;49.240;8.548;2023-09-30T10:53:28;101486.00;;;25.12
19568;BMP280;9930;49.240;8.548;2023-09-30T10:56:23;101439.09;;;24.90
19568;BMP280;9930;49.240;8.548;2023-09-30T11:37:51;101459.81;;;25.28
19568;BMP280;9930;49.240;8.548;2023-09-30T11:45:28;101449.31;;;25.32
19568;BMP280;9930;49.240;8.548;2023-09-30T12:01:14;101439.63;;;25.49
19568;BMP280;9930;49.240;8.548;2023-09-30T12:03:49;101456.06;;;25.67
19568;BMP280;9930;49.240;8.548;2023-09-30T12:06:40;101436.91;;;25.62
19568;BMP280;9930;49.240;8.548;2023-09-30T12:09:14;101460.31;;;25.80
19568;BMP280;9930;49.240;8.548;2023-09-30T12:12:07;101445.53;;;25.77
19568;BMP280;9930;49.240;8.548;2023-09-30T12:14:47;101436.81;;;25.77
19568;BMP280;9930;49.240;8.548;2023-09-30T12:17:19;101435.94;;;25.78
19568;BMP280;9930;49.240;8.548;2023-09-30T12:19:58;101447.16;;;25.89
19568;BMP280;9930;49.240;8.548;2023-09-30T12:23:15;101442.81;;;25.90
19568;BMP280;9930;49.240;8.548;2023-09-30T12:25:53;101447.94;;;25.99
19568;BMP280;9930;49.240;8.548;2023-09-30T12:28:23;101447.13;;;25.95
19568;BMP280;9930;49.240;8.548;2023-09-30T12:40:24;101421.88;;;25.91
19568;BMP280;9930;49.240;8.548;2023-09-30T14:10:42;101349.75;;;25.70
19568;BMP280;9930;49.240;8.548;2023-09-30T14:13:25;101352.31;;;25.78
19568;BMP280;9930;49.240;8.548;2023-09-30T14:16:45;101354.91;;;25.79
19568;BMP280;9930;49.240;8.548;2023-09-30T14:19:52;101377.38;;;25.97
19568;BMP280;9930;49.240;8.548;2023-09-30T14:23:14;101341.88;;;25.76
19568;BMP280;9930;49.240;8.548;2023-09-30T14:25:56;101360.06;;;25.87
19568;BMP280;9930;49.240;8.548;2023-09-30T14:28:44;101336.66;;;25.75
19568;BMP280;9930;49.240;8.548;2023-09-30T14:31:26;101350.53;;;25.80
19568;BMP280;9930;49.240;8.548;2023-09-30T14:34:10;101333.25;;;25.67
19568;BMP280;9930;49.240;8.548;2023-09-30T14:44:53;101327.22;;;25.56
19568;BMP280;9930;49.240;8.548;2023-09-30T14:47:42;101355.03;;;25.66
19568;BMP280;9930;49.240;8.548;2023-09-30T14:50:53;101330.75;;;25.52
19568;BMP280;9930;49.240;8.548;2023-09-30T14:57:05;101328.06;;;25.59
19568;BMP280;9930;49.240;8.548;2023-09-30T15:06:03;101331.53;;;25.66
19568;BMP280;9930;49.240;8.548;2023-09-30T15:08:49;101348.00;;;25.72
19568;BMP280;9930;49.240;8.548;2023-09-30T15:11:20;101339.28;;;25.73
19568;BMP280;9930;49.240;8.548;2023-09-30T15:14:07;101328.88;;;25.69
19568;BMP280;9930;49.240;8.548;2023-09-30T15:17:18;101303.69;;;25.57
19568;BMP280;9930;49.240;8.548;2023-09-30T15:20:12;101332.25;;;25.80
19568;BMP280;9930;49.240;8.548;2023-09-30T15:22:43;101331.44;;;25.73
19568;BMP280;9930;49.240;8.548;2023-09-30T15:25:12;101316.72;;;25.65
19568;BMP280;9930;49.240;8.548;2023-09-30T15:27:42;101332.31;;;25.74
19568;BMP280;9930;49.240;8.548;2023-09-30T15:30:11;101328.00;;;25.68
19568;BMP280;9930;49.240;8.548;2023-09-30T15:35:45;101325.41;;;25.64
19568;BMP280;9930;49.240;8.548;2023-09-30T15:38:21;101328.88;;;25.69
19568;BMP280;9930;49.240;8.548;2023-09-30T15:56:17;101346.34;;;25.65
19568;BMP280;9930;49.240;8.548;2023-09-30T15:59:34;101297.84;;;25.31
19568;BMP280;9930;49.240;8.548;2023-09-30T16:06:44;101297.13;;;25.15
19568;BMP280;9930;49.240;8.548;2023-09-30T16:24:12;101329.44;;;24.99
19568;BMP280;9930;49.240;8.548;2023-09-30T16:26:51;101307.78;;;24.81
19568;BMP280;9930;49.240;8.548;2023-09-30T16:36:03;101369.47;;;24.95
19568;BMP280;9930;49.240;8.548;2023-09-30T16:39:22;101347.84;;;24.76
19568;BMP280;9930;49.240;8.548;2023-09-30T16:45:53;101347.91;;;24.62
19568;BMP280;9930;49.240;8.548;2023-09-30T16:49:09;101309.78;;;24.35
19568;BMP280;9930;49.240;8.548;2023-09-30T16:51:34;101344.50;;;24.51
19568;BMP280;9930;49.240;8.548;2023-09-30T16:54:03;101369.66;;;24.64
19568;BMP280;9930;49.240;8.548;2023-09-30T16:56:30;101323.72;;;24.33
19568;BMP280;9930;49.240;8.548;2023-09-30T16:58:56;101359.28;;;24.50
19568;BMP280;9930;49.240;8.548;2023-09-30T17:01:26;101365.34;;;24.52
19568;BMP280;9930;49.240;8.548;2023-09-30T17:17:21;101349.81;;;24.14
19568;BMP280;9930;49.240;8.548;2023-09-30T17:33:23;101326.50;;;23.67
19568;BMP280;9930;49.240;8.548;2023-09-30T17:36:59;101338.66;;;23.64
19568;BMP280;9930;49.240;8.548;2023-09-30T17:39:51;101375.97;;;23.75
19568;BMP280;9930;49.240;8.548;2023-09-30T17:42:33;101345.56;;;23.52
19568;BMP280;9930;49.240;8.548;2023-09-30T17:45:30;101382.94;;;23.62
19568;BMP280;9930;49.240;8.548;2023-09-30T17:48:21;101354.25;;;23.39
19568;BMP280;9930;49.240;8.548;2023-09-30T17:55:07;101388.09;;;23.41
19568;BMP280;9930;49.240;8.548;2023-09-30T17:57:47;101359.47;;;23.22
19568;BMP280;9930;49.240;8.548;2023-09-30T18:04:29;101377.66;;;23.12
19568;BMP280;9930;49.240;8.548;2023-09-30T18:07:28;101363.75;;;22.99
19568;BMP280;9930;49.240;8.548;2023-09-30T18:10:21;101362.88;;;22.92
19568;BMP280;9930;49.240;8.548;2023-09-30T18:13:23;101339.41;;;22.73
19568;BMP280;9930;49.240;8.548;2023-09-30T18:16:08;101370.69;;;22.88
19568;BMP280;9930;49.240;8.548;2023-09-30T18:19:06;101393.25;;;22.92
19568;BMP280;9930;49.240;8.548;2023-09-30T18:37:50;101417.31;;;22.48
19568;BMP280;9930;49.240;8.548;2023-09-30T19:02:22;101421.31;;;21.94
19568;BMP280;9930;49.240;8.548;2023-09-30T19:05:13;101423.88;;;21.91
19568;BMP280;9930;49.240;8.548;2023-09-30T19:07:43;101413.44;;;21.82
19568;BMP280;9930;49.240;8.548;2023-09-30T19:10:09;101402.13;;;21.76
19568;BMP280;9930;49.240;8.548;2023-09-30T19:12:42;101428.19;;;21.88
19568;BMP280;9930;49.240;8.548;2023-09-30T19:15:36;101393.38;;;21.64
19568;BMP280;9930;49.240;8.548;2023-09-30T19:18:15;101399.44;;;21.66
19568;BMP280;9930;49.240;8.548;2023-09-30T19:20:54;101397.69;;;21.62
19568;BMP280;9930;49.240;8.548;2023-09-30T19:23:23;101416.81;;;21.74
19568;BMP280;9930;49.240;8.548;2023-09-30T19:25:56;101388.97;;;21.56
19568;BMP280;9930;49.240;8.548;2023-09-30T19:28:32;101401.97;;;21.56
19568;BMP280;9930;49.240;8.548;2023-09-30T19:31:14;101422.75;;;21.59
19568;BMP280;9930;49.240;8.548;2023-09-30T20:25:44;101424.97;;;20.47
19568;BMP280;9930;49.240;8.548;2023-09-30T20:32:19;101435.44;;;20.53
19568;BMP280;9930;49.240;8.548;2023-09-30T20:35:42;101394.41;;;20.23
19568;BMP280;9930;49.240;8.548;2023-09-30T20:41:45;101445.63;;;20.41
19568;BMP280;9930;49.240;8.548;2023-09-30T20:44:28;101396.88;;;20.15
19568;BMP280;9930;49.240;8.548;2023-09-30T20:54:23;101425.59;;;20.30
19568;BMP280;9930;49.240;8.548;2023-09-30T20:57:15;101412.47;;;20.18
19568;BMP280;9930;49.240;8.548;2023-09-30T21:04:05;101388.81;;;19.94
19568;BMP280;9930;49.240;8.548;2023-09-30T21:10:39;101436.53;;;20.11
19568;BMP280;9930;49.240;8.548;2023-09-30T21:17:27;101419.75;;;19.86
19568;BMP280;9930;49.240;8.548;2023-09-30T21:20:15;101413.63;;;19.81
19568;BMP280;9930;49.240;8.548;2023-09-30T23:14:41;101480.16;;;18.56
19568;BMP280;9930;49.240;8.548;2023-09-30T23:17:15;101453.16;;;18.41
19568;BMP280;9930;49.240;8.548;2023-09-30T23:19:47;101445.25;;;18.35
19568;BMP280;9930;49.240;8.548;2023-09-30T23:22:19;101463.63;;;18.48
19568;BMP280;9930;49.240;8.548;2023-09-30T23:24:45;101434.78;;;18.29
19568;BMP280;9930;49.240;8.548;2023-09-30T23:27:14;101459.22;;;18.43
19568;BMP280;9930;49.240;8.548;2023-09-30T23:29:44;101441.88;;;18.38
19568;BMP280;9930;49.240;8.548;2023-09-30T23:32:10;101450.50;;;18.38
19568;BMP280;9930;49.240;8.548;2023-09-30T23:34:39;101446.09;;;18.34
19568;BMP280;9930;49.240;8.548;2023-09-30T23:37:10;101426.00;;;18.21
19568;BMP280;9930;49.240;8.548;2023-09-30T23:39:38;101461.66;;;18.37
19568;BMP280;9930;49.240;8.548;2023-09-30T23:42:14;101433.81;;;18.24
19568;BMP280;9930;49.240;8.548;2023-09-30T23:44:52;101447.72;;;18.29
19568;BMP280;9930;49.240;8.548;2023-09-30T23:47:18;101426.69;;;18.14
19568;BMP280;9930;49.240;8.548;2023-09-30T23:49:44;101446.69;;;18.23
19568;BMP280;9930;49.240;8.548;2023-09-30T23:52:13;101420.56;;;18.09
19568;BMP280;9930;49.240;8.548;2023-09-30T23:54:43;101456.16;;;18.22
19568;BMP280;9930;49.240;8.548;2023-09-30T23:57:11;101452.63;;;18.19
19568;BMP280;9930;49.240;8.548;2023-09-30T23:59:36;101460.44;;;18.22
